createdAt,value
2022-12-01T00:01:20.815Z,4.78
2022-12-01T00:03:48.600Z,4.81
2022-12-01T00:06:18.778Z,4.85
2022-12-01T00:09:06.497Z,4.85
2022-12-01T00:11:35.549Z,4.83
2022-12-01T00:14:03.502Z,4.80
2022-12-01T00:16:31.325Z,4.82
2022-12-01T00:18:58.911Z,4.83
2022-12-01T00:21:26.870Z,4.77
2022-12-01T00:23:56.429Z,4.79
2022-12-01T00:26:26.843Z,4.75
2022-12-01T00:28:56.792Z,4.73
2022-12-01T00:31:24.717Z,4.73
2022-12-01T00:33:52.169Z,4.77
2022-12-01T00:36:19.921Z,4.78
2022-12-01T00:38:47.118Z,4.78
2022-12-01T00:41:14.459Z,4.77
2022-12-01T00:43:41.814Z,4.72
2022-12-01T00:46:09.272Z,4.77
2022-12-01T00:48:36.594Z,4.81
2022-12-01T00:51:04.494Z,4.80
2022-12-01T00:53:31.804Z,4.76
2022-12-01T00:55:59.148Z,4.74
2022-12-01T00:58:26.388Z,4.79
2022-12-01T01:00:59.068Z,4.84
2022-12-01T01:03:27.679Z,4.81
2022-12-01T01:05:55.120Z,4.81
2022-12-01T01:08:22.488Z,4.80
2022-12-01T01:10:49.895Z,4.78
2022-12-01T01:13:17.273Z,4.84
2022-12-01T01:15:44.524Z,4.84
2022-12-01T01:18:12.716Z,4.86
2022-12-01T01:20:39.910Z,4.79
2022-12-01T01:23:07.288Z,4.81
2022-12-01T01:25:34.624Z,4.79
2022-12-01T01:28:01.923Z,4.78
2022-12-01T01:30:29.165Z,4.74
2022-12-01T01:32:56.540Z,4.75
2022-12-01T01:35:23.825Z,4.77
2022-12-01T01:37:51.843Z,4.81
2022-12-01T01:40:19.211Z,4.81
2022-12-01T01:42:46.447Z,4.80
2022-12-01T01:45:25.968Z,4.81
2022-12-01T01:47:55.541Z,4.80
2022-12-01T01:50:25.630Z,4.78
2022-12-01T01:53:02.724Z,4.78
2022-12-01T01:55:33.787Z,4.77
2022-12-01T01:58:04.476Z,4.76
2022-12-01T02:00:31.751Z,4.75
2022-12-01T02:03:00.219Z,4.76
2022-12-01T02:05:30.905Z,4.77
2022-12-01T02:08:00.154Z,4.74
2022-12-01T02:11:01.641Z,4.76
2022-12-01T02:13:45.105Z,4.72
2022-12-01T02:16:36.680Z,4.75
2022-12-01T02:19:52.048Z,4.74
2022-12-01T02:22:32.007Z,4.79
2022-12-01T02:25:11.548Z,4.76
2022-12-01T02:27:44.700Z,4.77
2022-12-01T02:30:17.915Z,4.82
2022-12-01T02:32:52.166Z,4.80
2022-12-01T02:35:47.732Z,4.78
2022-12-01T02:38:53.437Z,4.79
2022-12-01T02:41:30.436Z,4.78
2022-12-01T02:44:08.911Z,4.77
2022-12-01T02:46:44.371Z,4.73
2022-12-01T02:49:17.655Z,4.75
2022-12-01T02:51:45.959Z,4.74
2022-12-01T02:54:15.080Z,4.71
2022-12-01T02:56:45.054Z,4.71
2022-12-01T02:59:15.087Z,4.69
2022-12-01T03:01:46.012Z,4.72
2022-12-01T03:04:38.982Z,4.64
2022-12-01T03:07:44.067Z,4.67
2022-12-01T03:10:42.562Z,4.71
2022-12-01T03:13:17.924Z,4.73
2022-12-01T03:16:06.228Z,4.67
2022-12-01T03:18:45.944Z,4.74
2022-12-01T03:21:23.131Z,4.67
2022-12-01T03:24:01.145Z,4.66
2022-12-01T03:26:32.595Z,4.63
2022-12-01T03:29:08.198Z,4.65
2022-12-01T03:31:42.550Z,4.66
2022-12-01T03:34:23.196Z,4.66
2022-12-01T03:36:57.874Z,4.63
2022-12-01T03:39:32.302Z,4.56
2022-12-01T03:42:08.758Z,4.53
2022-12-01T03:44:45.476Z,4.56
2022-12-01T03:47:14.854Z,4.54
2022-12-01T03:49:43.435Z,4.47
2022-12-01T03:52:23.554Z,4.46
2022-12-01T03:55:09.365Z,4.45
2022-12-01T03:57:44.098Z,4.42
2022-12-01T04:00:13.530Z,4.43
2022-12-01T04:02:41.396Z,4.36
2022-12-01T04:05:11.807Z,4.34
2022-12-01T04:07:39.762Z,4.29
2022-12-01T04:10:08.006Z,4.38
2022-12-01T04:12:35.672Z,4.40
2022-12-01T04:15:10.149Z,4.38
2022-12-01T04:17:37.537Z,4.37
2022-12-01T04:20:06.930Z,4.38
2022-12-01T04:22:34.330Z,4.36
2022-12-01T04:25:01.729Z,4.33
2022-12-01T04:27:29.075Z,4.42
2022-12-01T04:29:56.214Z,4.35
2022-12-01T04:32:23.628Z,4.28
2022-12-01T04:34:51.003Z,4.34
2022-12-01T04:37:19.032Z,4.30
2022-12-01T04:39:46.538Z,4.30
2022-12-01T04:42:13.920Z,4.27
2022-12-01T04:44:41.078Z,4.22
2022-12-01T04:47:08.504Z,4.24
2022-12-01T04:49:37.158Z,4.28
2022-12-01T04:52:04.691Z,4.31
2022-12-01T04:54:32.014Z,4.32
2022-12-01T04:56:59.149Z,4.33
2022-12-01T04:59:26.445Z,4.31
2022-12-01T05:01:53.765Z,4.22
2022-12-01T05:04:21.241Z,4.22
2022-12-01T05:06:48.655Z,4.24
2022-12-01T05:09:17.705Z,4.27
2022-12-01T05:11:45.391Z,4.25
2022-12-01T05:14:12.952Z,4.24
2022-12-01T05:16:40.362Z,4.26
2022-12-01T05:19:26.279Z,4.24
2022-12-01T05:21:54.014Z,4.25
2022-12-01T05:24:21.515Z,4.23
2022-12-01T05:26:49.084Z,4.20
2022-12-01T05:29:16.445Z,4.24
2022-12-01T05:31:45.539Z,4.20
2022-12-01T05:34:13.246Z,4.22
2022-12-01T05:36:40.473Z,4.20
2022-12-01T05:39:07.807Z,4.25
2022-12-01T05:41:35.190Z,4.26
2022-12-01T05:44:02.641Z,4.29
2022-12-01T05:46:29.795Z,4.22
2022-12-01T05:48:57.206Z,4.27
2022-12-01T05:51:24.380Z,4.29
2022-12-01T05:53:51.590Z,4.28
2022-12-01T05:56:18.827Z,4.34
2022-12-01T05:58:46.132Z,4.41
2022-12-01T06:01:13.467Z,4.41
2022-12-01T06:03:40.776Z,4.39
2022-12-01T06:06:08.119Z,4.39
2022-12-01T06:08:35.503Z,4.41
2022-12-01T06:11:03.116Z,4.39
2022-12-01T06:13:30.323Z,4.43
2022-12-01T06:16:03.164Z,4.47
2022-12-01T06:18:33.437Z,4.48
2022-12-01T06:21:01.467Z,4.50
2022-12-01T06:23:30.508Z,4.42
2022-12-01T06:25:58.812Z,4.44
2022-12-01T06:28:26.065Z,4.41
2022-12-01T06:30:56.634Z,4.44
2022-12-01T06:33:28.512Z,4.48
2022-12-01T06:36:00.299Z,4.49
2022-12-01T06:38:31.015Z,4.51
2022-12-01T06:40:58.332Z,4.63
2022-12-01T06:43:25.559Z,4.64
2022-12-01T06:45:56.439Z,4.60
2022-12-01T06:48:28.354Z,4.57
2022-12-01T06:51:00.292Z,4.63
2022-12-01T06:53:28.719Z,4.59
2022-12-01T06:56:04.414Z,4.61
2022-12-01T06:58:32.324Z,4.65
2022-12-01T07:01:00.292Z,4.74
2022-12-01T07:03:27.569Z,4.72
2022-12-01T07:05:59.404Z,4.72
2022-12-01T07:08:27.570Z,4.76
2022-12-01T07:11:07.572Z,4.76
2022-12-01T07:13:35.462Z,4.78
2022-12-01T07:16:03.560Z,4.81
2022-12-01T07:18:32.244Z,4.88
2022-12-01T07:21:01.403Z,4.91
2022-12-01T07:23:28.783Z,4.92
2022-12-01T07:26:06.772Z,4.95
2022-12-01T07:28:34.124Z,4.99
2022-12-01T07:31:09.619Z,5.01
2022-12-01T07:33:37.115Z,5.05
2022-12-01T07:36:05.351Z,5.09
2022-12-01T07:38:34.547Z,5.15
2022-12-01T07:41:11.109Z,5.16
2022-12-01T07:43:39.340Z,5.25
2022-12-01T07:46:22.589Z,5.32
2022-12-01T07:48:51.961Z,5.35
2022-12-01T07:51:19.983Z,5.38
2022-12-01T07:53:49.343Z,5.43
2022-12-01T07:56:16.846Z,5.50
2022-12-01T07:58:44.300Z,5.57
2022-12-01T08:01:13.189Z,5.65
2022-12-01T08:03:41.258Z,5.68
2022-12-01T08:06:09.326Z,5.76
2022-12-01T08:08:37.196Z,5.82
2022-12-01T08:11:06.305Z,5.85
2022-12-01T08:13:33.584Z,5.90
2022-12-01T08:16:02.964Z,5.96
2022-12-01T08:18:30.040Z,6.01
2022-12-01T08:20:58.392Z,6.08
2022-12-01T08:23:26.321Z,6.21
2022-12-01T08:25:54.354Z,6.32
2022-12-01T08:28:21.932Z,6.40
2022-12-01T08:30:53.575Z,6.48
2022-12-01T08:33:20.843Z,6.55
2022-12-01T08:35:48.462Z,6.64
2022-12-01T08:38:16.512Z,6.81
2022-12-01T08:40:43.537Z,7.05
2022-12-01T08:43:28.294Z,7.45
2022-12-01T08:46:02.297Z,7.67
2022-12-01T08:48:30.231Z,7.67
2022-12-01T08:51:11.470Z,7.67
2022-12-01T08:53:45.316Z,7.86
2022-12-01T08:56:19.630Z,8.22
2022-12-01T08:58:47.345Z,8.53
2022-12-01T09:01:16.813Z,8.46
2022-12-01T09:03:44.643Z,8.40
2022-12-01T09:06:15.346Z,8.45
2022-12-01T09:08:43.550Z,8.46
2022-12-01T09:11:14.135Z,8.49
2022-12-01T09:13:43.300Z,8.56
2022-12-01T09:16:13.304Z,8.78
2022-12-01T09:18:42.396Z,9.02
2022-12-01T09:21:14.501Z,9.19
2022-12-01T09:23:41.797Z,9.22
2022-12-01T09:26:13.411Z,9.20
2022-12-01T09:28:41.219Z,9.42
2022-12-01T09:31:11.618Z,9.50
2022-12-01T09:33:39.696Z,9.28
2022-12-01T09:36:08.626Z,9.08
2022-12-01T09:38:37.779Z,9.38
2022-12-01T09:41:18.078Z,9.48
2022-12-01T09:44:15.675Z,9.51
2022-12-01T09:46:49.265Z,9.53
2022-12-01T09:49:39.492Z,9.33
2022-12-01T09:52:12.104Z,9.34
2022-12-01T09:54:39.690Z,9.76
2022-12-01T09:57:16.404Z,9.71
2022-12-01T09:59:45.489Z,9.91
2022-12-01T10:02:51.028Z,10.15
2022-12-01T10:05:24.604Z,10.75
2022-12-01T10:08:15.794Z,10.48
2022-12-01T10:10:47.106Z,10.67
2022-12-01T10:13:26.275Z,10.77
2022-12-01T10:15:53.512Z,10.74
2022-12-01T10:18:58.412Z,11.27
2022-12-01T10:21:38.172Z,11.05
2022-12-01T10:24:24.911Z,11.37
2022-12-01T10:26:59.516Z,10.93
2022-12-01T10:29:39.018Z,11.11
2022-12-01T10:32:13.807Z,11.25
2022-12-01T10:34:43.143Z,11.37
2022-12-01T10:37:18.479Z,11.36
2022-12-01T10:39:49.449Z,10.73
2022-12-01T10:42:50.105Z,10.52
2022-12-01T10:45:24.635Z,10.29
2022-12-01T10:48:15.520Z,10.73
2022-12-01T10:50:53.145Z,10.50
2022-12-01T10:53:23.318Z,10.71
2022-12-01T10:55:51.740Z,10.46
2022-12-01T10:58:19.447Z,10.51
2022-12-01T11:01:00.122Z,10.41
2022-12-01T11:03:30.287Z,10.32
2022-12-01T11:05:59.270Z,10.41
2022-12-01T11:08:37.296Z,10.24
2022-12-01T11:11:04.696Z,10.19
2022-12-01T11:13:34.245Z,10.19
2022-12-01T11:16:03.200Z,10.08
2022-12-01T11:18:30.393Z,10.10
2022-12-01T11:21:06.785Z,10.15
2022-12-01T11:23:37.800Z,10.29
2022-12-01T11:26:25.642Z,10.19
2022-12-01T11:29:00.260Z,10.08
2022-12-01T11:31:41.778Z,10.14
2022-12-01T11:34:24.218Z,10.11
2022-12-01T11:36:53.742Z,10.20
2022-12-01T11:39:23.670Z,10.34
2022-12-01T11:41:55.331Z,10.23
2022-12-01T11:44:49.725Z,10.24
2022-12-01T11:47:28.335Z,10.11
2022-12-01T11:49:57.640Z,10.18
2022-12-01T11:52:29.998Z,10.26
2022-12-01T11:55:08.493Z,10.29
2022-12-01T11:57:39.023Z,10.39
2022-12-01T12:00:12.999Z,10.56
2022-12-01T12:02:40.173Z,10.50
2022-12-01T12:05:25.533Z,10.38
2022-12-01T12:08:02.060Z,10.39
2022-12-01T12:10:29.375Z,10.59
2022-12-01T12:13:15.065Z,10.51
2022-12-01T12:16:06.310Z,10.49
2022-12-01T12:18:52.036Z,10.61
2022-12-01T12:21:32.701Z,10.74
2022-12-01T12:24:17.298Z,10.74
2022-12-01T12:26:52.112Z,10.57
2022-12-01T12:29:28.334Z,10.69
2022-12-01T12:32:19.078Z,10.65
2022-12-01T12:34:49.140Z,10.63
2022-12-01T12:37:24.425Z,10.58
2022-12-01T12:40:13.855Z,10.56
2022-12-01T12:42:40.990Z,10.43
2022-12-01T12:45:26.528Z,10.45
2022-12-01T12:47:53.558Z,10.33
2022-12-01T12:50:25.437Z,10.30
2022-12-01T12:52:55.742Z,10.19
2022-12-01T12:55:41.669Z,10.25
2022-12-01T12:58:27.045Z,10.16
2022-12-01T13:00:57.567Z,10.25
2022-12-01T13:03:33.963Z,10.41
2022-12-01T13:06:05.757Z,10.39
2022-12-01T13:08:48.151Z,10.53
2022-12-01T13:11:23.854Z,10.61
2022-12-01T13:13:55.920Z,10.56
2022-12-01T13:16:28.167Z,10.66
2022-12-01T13:19:03.014Z,10.45
2022-12-01T13:21:35.467Z,10.55
2022-12-01T13:24:03.365Z,10.46
2022-12-01T13:26:30.788Z,10.46
2022-12-01T13:28:58.373Z,10.50
2022-12-01T13:31:25.662Z,10.47
2022-12-01T13:33:58.874Z,10.29
2022-12-01T13:39:23.033Z,10.31
2022-12-01T13:41:58.303Z,10.28
2022-12-01T13:44:25.338Z,10.15
2022-12-01T13:46:56.720Z,10.11
2022-12-01T13:49:36.921Z,10.05
2022-12-01T13:52:22.445Z,10.15
2022-12-01T13:55:12.990Z,10.00
2022-12-01T13:57:58.364Z,9.95
2022-12-01T14:00:27.387Z,10.02
2022-12-01T14:03:13.090Z,9.96
2022-12-01T14:05:40.466Z,9.96
2022-12-01T14:08:26.508Z,10.05
2022-12-01T14:10:58.424Z,9.95
2022-12-01T14:13:26.978Z,9.95
2022-12-01T14:15:58.858Z,9.92
2022-12-01T14:18:36.898Z,9.76
2022-12-01T14:21:06.168Z,9.66
2022-12-01T14:23:34.619Z,9.71
2022-12-01T14:26:14.007Z,9.54
2022-12-01T14:28:53.447Z,9.50
2022-12-01T14:31:21.155Z,9.48
2022-12-01T14:34:07.245Z,9.51
2022-12-01T14:36:49.232Z,9.41
2022-12-01T14:39:40.735Z,9.25
2022-12-01T14:42:11.030Z,9.34
2022-12-01T14:44:44.381Z,9.34
2022-12-01T14:47:11.863Z,9.20
2022-12-01T14:50:02.876Z,9.09
2022-12-01T14:52:35.790Z,9.05
2022-12-01T14:55:07.444Z,9.14
2022-12-01T14:57:39.670Z,9.01
2022-12-01T15:00:13.596Z,8.99
2022-12-01T15:02:55.951Z,8.94
2022-12-01T15:05:25.971Z,9.07
2022-12-01T15:08:06.743Z,9.01
2022-12-01T15:10:48.698Z,8.91
2022-12-01T15:13:21.583Z,8.87
2022-12-01T15:15:50.053Z,8.87
2022-12-01T15:18:21.187Z,8.77
2022-12-01T15:20:50.863Z,8.73
2022-12-01T15:23:18.723Z,8.71
2022-12-01T15:25:46.428Z,8.65
2022-12-01T15:28:15.707Z,8.63
2022-12-01T15:30:44.208Z,8.54
2022-12-01T15:33:20.614Z,8.70
2022-12-01T15:35:51.891Z,8.56
2022-12-01T15:38:22.325Z,8.53
2022-12-01T15:43:40.199Z,8.54
2022-12-01T15:46:12.414Z,8.57
2022-12-01T15:48:39.985Z,8.48
2022-12-01T15:51:13.068Z,8.45
2022-12-01T15:53:45.195Z,8.43
2022-12-01T15:56:12.778Z,8.41
2022-12-01T15:58:45.400Z,8.38
2022-12-01T16:01:19.606Z,8.33
2022-12-01T16:03:52.426Z,8.30
2022-12-01T16:06:21.252Z,8.31
2022-12-01T16:08:56.734Z,8.26
2022-12-01T16:11:24.108Z,8.31
2022-12-01T16:14:00.686Z,8.29
2022-12-01T16:16:42.510Z,8.30
2022-12-01T16:19:09.851Z,8.51
2022-12-01T16:21:45.989Z,8.33
2022-12-01T16:24:18.120Z,8.22
2022-12-01T16:26:53.377Z,8.24
2022-12-01T16:29:21.949Z,8.20
2022-12-01T16:32:18.930Z,8.15
2022-12-01T16:34:52.027Z,8.08
2022-12-01T16:37:19.763Z,8.04
2022-12-01T16:39:47.013Z,8.12
2022-12-01T16:42:14.980Z,8.08
2022-12-01T16:44:43.422Z,8.02
2022-12-01T16:47:15.414Z,7.98
2022-12-01T16:49:42.605Z,7.89
2022-12-01T16:54:58.603Z,8.00
2022-12-01T16:57:25.844Z,7.86
2022-12-01T16:59:53.099Z,7.77
2022-12-01T17:02:20.189Z,7.67
2022-12-01T17:04:47.841Z,7.44
2022-12-01T17:07:15.015Z,7.24
2022-12-01T17:09:42.177Z,7.07
2022-12-01T17:12:09.910Z,7.03
2022-12-01T17:14:37.401Z,7.20
2022-12-01T17:17:04.642Z,7.22
2022-12-01T17:19:31.923Z,7.10
2022-12-01T17:21:59.106Z,7.00
2022-12-01T17:24:26.267Z,6.78
2022-12-01T17:26:53.534Z,6.83
2022-12-01T17:29:20.700Z,6.72
2022-12-01T17:31:47.808Z,6.79
2022-12-01T17:34:16.026Z,6.68
2022-12-01T17:36:43.304Z,6.55
2022-12-01T17:39:10.444Z,6.47
2022-12-01T17:41:37.681Z,6.35
2022-12-01T17:44:05.057Z,6.26
2022-12-01T17:46:32.177Z,6.16
2022-12-01T17:49:01.358Z,6.04
2022-12-01T17:51:28.434Z,5.98
2022-12-01T17:53:55.455Z,5.90
2022-12-01T17:56:22.626Z,5.91
2022-12-01T17:58:51.286Z,5.84
2022-12-01T18:01:19.122Z,5.67
2022-12-01T18:03:46.571Z,5.51
2022-12-01T18:06:15.560Z,5.43
2022-12-01T18:08:42.919Z,5.41
2022-12-01T18:11:11.855Z,5.43
2022-12-01T18:13:40.257Z,5.45
2022-12-01T18:16:12.432Z,5.46
2022-12-01T18:18:39.829Z,5.46
2022-12-01T18:21:11.027Z,5.57
2022-12-01T18:23:38.306Z,5.56
2022-12-01T18:26:08.655Z,5.65
2022-12-01T18:28:39.467Z,5.67
2022-12-01T18:31:07.835Z,5.60
2022-12-01T18:33:36.062Z,5.75
2022-12-01T18:36:04.123Z,5.64
2022-12-01T18:38:31.283Z,5.70
2022-12-01T18:40:59.165Z,5.72
2022-12-01T18:43:30.198Z,5.73
2022-12-01T18:45:57.867Z,5.78
2022-12-01T18:48:25.194Z,5.84
2022-12-01T18:50:57.899Z,5.82
2022-12-01T18:53:26.410Z,5.79
2022-12-01T18:55:53.471Z,5.87
2022-12-01T18:58:20.523Z,5.84
2022-12-01T19:00:47.532Z,5.93
2022-12-01T19:03:14.710Z,5.92
2022-12-01T19:05:41.804Z,5.83
2022-12-01T19:08:08.964Z,5.86
2022-12-01T19:10:38.769Z,5.84
2022-12-01T19:13:06.223Z,5.78
2022-12-01T19:15:36.074Z,5.81
2022-12-01T19:18:03.201Z,5.74
2022-12-01T19:20:30.462Z,5.69
2022-12-01T19:22:57.630Z,5.75
2022-12-01T19:25:25.762Z,5.75
2022-12-01T19:27:53.147Z,5.73
2022-12-01T19:30:20.309Z,5.71
2022-12-01T19:32:47.710Z,5.66
2022-12-01T19:35:14.875Z,5.68
2022-12-01T19:37:42.571Z,5.70
2022-12-01T19:40:09.822Z,5.70
2022-12-01T19:42:36.947Z,5.68
2022-12-01T19:45:04.253Z,5.67
2022-12-01T19:47:32.190Z,5.68
2022-12-01T19:50:01.468Z,5.74
2022-12-01T19:52:28.807Z,5.68
2022-12-01T19:54:56.939Z,5.66
2022-12-01T19:57:24.179Z,5.66
2022-12-01T19:59:51.264Z,5.62
2022-12-01T20:02:23.864Z,5.64
2022-12-01T20:04:53.359Z,5.63
2022-12-01T20:07:20.303Z,5.59
2022-12-01T20:09:50.023Z,5.59
2022-12-01T20:12:17.653Z,5.59
2022-12-01T20:14:45.869Z,5.61
2022-12-01T20:17:15.897Z,5.64
2022-12-01T20:19:43.347Z,5.64
2022-12-01T20:22:11.001Z,5.65
2022-12-01T20:24:41.113Z,5.72
2022-12-01T20:27:08.823Z,5.74
2022-12-01T20:29:35.847Z,5.76
2022-12-01T20:32:03.415Z,5.78
2022-12-01T20:34:32.445Z,5.79
2022-12-01T20:37:00.796Z,5.80
2022-12-01T20:39:31.359Z,5.83
2022-12-01T20:41:58.742Z,5.84
2022-12-01T20:44:25.798Z,5.85
2022-12-01T20:46:53.243Z,5.86
2022-12-01T20:49:20.507Z,5.87
2022-12-01T20:51:47.621Z,5.90
2022-12-01T20:54:30.913Z,5.92
2022-12-01T20:56:58.635Z,5.89
2022-12-01T20:59:25.694Z,5.95
2022-12-01T21:01:52.836Z,5.92
2022-12-01T21:04:19.912Z,5.89
2022-12-01T21:06:47.369Z,5.90
2022-12-01T21:09:14.863Z,5.85
2022-12-01T21:12:07.713Z,5.82
2022-12-01T21:14:53.817Z,5.82
2022-12-01T21:17:21.091Z,5.85
2022-12-01T21:20:08.873Z,5.80
2022-12-01T21:22:36.392Z,5.84
2022-12-01T21:25:10.280Z,5.87
2022-12-01T21:27:37.519Z,5.90
2022-12-01T21:30:14.169Z,5.94
2022-12-01T21:32:44.127Z,5.94
2022-12-01T21:35:23.571Z,5.89
2022-12-01T21:37:51.863Z,5.93
2022-12-01T21:40:19.137Z,5.93
2022-12-01T21:42:46.577Z,5.95
2022-12-01T21:45:32.156Z,6.04
2022-12-01T21:48:31.661Z,6.02
2022-12-01T21:51:02.635Z,6.05
2022-12-01T21:53:33.095Z,6.09
2022-12-01T21:56:00.205Z,6.11
2022-12-01T21:58:34.371Z,6.15
2022-12-01T22:01:02.544Z,6.18
2022-12-01T22:03:29.594Z,6.21
2022-12-01T22:06:27.603Z,6.23
2022-12-01T22:08:45.703Z,6.28
2022-12-01T22:11:12.690Z,6.30
2022-12-01T22:13:54.594Z,6.34
2022-12-01T22:16:25.671Z,6.38
2022-12-01T22:18:54.388Z,6.38
2022-12-01T22:21:35.340Z,6.41
2022-12-01T22:24:08.533Z,6.48
2022-12-01T22:26:41.198Z,6.47
2022-12-01T22:29:20.766Z,6.47
2022-12-01T22:31:48.026Z,6.48
2022-12-01T22:34:16.101Z,6.47
2022-12-01T22:36:43.324Z,6.54
2022-12-01T22:39:34.054Z,6.69
2022-12-01T22:42:08.076Z,6.68
2022-12-01T22:44:35.462Z,6.62
2022-12-01T22:47:03.730Z,6.55
2022-12-01T22:49:30.836Z,6.52
2022-12-01T22:52:02.361Z,6.48
2022-12-01T22:54:34.019Z,6.49
2022-12-01T22:57:01.028Z,6.47
2022-12-01T22:59:31.459Z,6.38
2022-12-01T23:02:00.179Z,6.37
2022-12-01T23:04:37.991Z,6.46
2022-12-01T23:07:23.823Z,6.56
2022-12-01T23:09:51.047Z,6.71
2022-12-01T23:12:26.021Z,6.69
2022-12-01T23:14:57.462Z,6.72
2022-12-01T23:17:26.275Z,6.77
2022-12-01T23:19:58.791Z,6.95
2022-12-01T23:22:25.859Z,7.27
2022-12-01T23:24:53.594Z,7.36
2022-12-01T23:27:20.837Z,7.40
2022-12-01T23:29:47.845Z,7.50
2022-12-01T23:32:14.931Z,7.58
2022-12-01T23:34:41.967Z,7.66
2022-12-01T23:37:21.331Z,7.63
2022-12-01T23:39:48.890Z,7.58
2022-12-01T23:42:15.874Z,7.67
2022-12-01T23:44:47.006Z,7.68
2022-12-01T23:47:19.075Z,7.69
2022-12-01T23:49:47.836Z,7.66
2022-12-01T23:52:19.496Z,7.70
2022-12-01T23:54:46.758Z,7.69
2022-12-01T23:57:19.780Z,7.68
2022-12-01T23:59:47.533Z,7.80
